sensor_id;sensor_type;location;lat;lon;timestamp;P1;durP1;ratioP1;P2;durP2;ratioP2
55589;SDS011;41452;42.780;23.116;2022-12-07T00:00:48;27.02;;;13.60;;
55589;SDS011;41452;42.780;23.116;2022-12-07T00:03:14;31.02;;;14.35;;
55589;SDS011;41452;42.780;23.116;2022-12-07T00:05:39;33.17;;;15.57;;
55589;SDS011;41452;42.780;23.116;2022-12-07T00:08:05;31.52;;;15.13;;
55589;SDS011;41452;42.780;23.116;2022-12-07T00:10:30;29.92;;;14.68;;
55589;SDS011;41452;42.780;23.116;2022-12-07T00:12:58;32.47;;;15.32;;
55589;SDS011;41452;42.780;23.116;2022-12-07T00:15:24;28.83;;;15.35;;
55589;SDS011;41452;42.780;23.116;2022-12-07T00:17:49;30.80;;;16.17;;
55589;SDS011;41452;42.780;23.116;2022-12-07T00:20:14;29.23;;;14.68;;
55589;SDS011;41452;42.780;23.116;2022-12-07T00:22:40;30.50;;;15.13;;
55589;SDS011;41452;42.780;23.116;2022-12-07T00:25:05;27.42;;;13.32;;
55589;SDS011;41452;42.780;23.116;2022-12-07T00:27:31;25.42;;;12.15;;
55589;SDS011;41452;42.780;23.116;2022-12-07T00:29:56;28.67;;;14.15;;
55589;SDS011;41452;42.780;23.116;2022-12-07T00:32:21;28.15;;;13.90;;
55589;SDS011;41452;42.780;23.116;2022-12-07T00:34:47;31.27;;;13.27;;
55589;SDS011;41452;42.780;23.116;2022-12-07T00:37:12;27.15;;;13.10;;
55589;SDS011;41452;42.780;23.116;2022-12-07T00:39:38;23.85;;;12.38;;
55589;SDS011;41452;42.780;23.116;2022-12-07T00:42:03;32.40;;;14.93;;
55589;SDS011;41452;42.780;23.116;2022-12-07T00:44:28;29.45;;;13.05;;
55589;SDS011;41452;42.780;23.116;2022-12-07T00:46:54;27.65;;;12.63;;
55589;SDS011;41452;42.780;23.116;2022-12-07T00:49:20;25.95;;;11.68;;
55589;SDS011;41452;42.780;23.116;2022-12-07T00:51:47;28.02;;;12.27;;
55589;SDS011;41452;42.780;23.116;2022-12-07T00:54:13;26.55;;;12.20;;
55589;SDS011;41452;42.780;23.116;2022-12-07T00:56:39;25.70;;;12.48;;
55589;SDS011;41452;42.780;23.116;2022-12-07T00:59:05;33.22;;;13.65;;
55589;SDS011;41452;42.780;23.116;2022-12-07T01:01:31;27.90;;;13.10;;
55589;SDS011;41452;42.780;23.116;2022-12-07T01:04:00;34.22;;;14.23;;
55589;SDS011;41452;42.780;23.116;2022-12-07T01:06:26;28.55;;;12.60;;
55589;SDS011;41452;42.780;23.116;2022-12-07T01:08:52;31.23;;;13.88;;
55589;SDS011;41452;42.780;23.116;2022-12-07T01:11:20;29.02;;;14.43;;
55589;SDS011;41452;42.780;23.116;2022-12-07T01:13:49;38.28;;;14.35;;
55589;SDS011;41452;42.780;23.116;2022-12-07T01:16:15;31.33;;;14.25;;
55589;SDS011;41452;42.780;23.116;2022-12-07T01:18:42;32.88;;;14.15;;
55589;SDS011;41452;42.780;23.116;2022-12-07T01:21:13;34.25;;;13.40;;
55589;SDS011;41452;42.780;23.116;2022-12-07T01:23:40;26.13;;;11.98;;
55589;SDS011;41452;42.780;23.116;2022-12-07T01:26:07;28.95;;;12.40;;
55589;SDS011;41452;42.780;23.116;2022-12-07T01:28:36;28.10;;;12.75;;
55589;SDS011;41452;42.780;23.116;2022-12-07T01:31:03;27.38;;;13.25;;
55589;SDS011;41452;42.780;23.116;2022-12-07T01:33:31;28.65;;;13.77;;
55589;SDS011;41452;42.780;23.116;2022-12-07T01:36:00;31.05;;;13.43;;
55589;SDS011;41452;42.780;23.116;2022-12-07T01:38:30;36.60;;;14.40;;
55589;SDS011;41452;42.780;23.116;2022-12-07T01:40:56;29.50;;;13.30;;
55589;SDS011;41452;42.780;23.116;2022-12-07T01:43:23;33.00;;;14.25;;
55589;SDS011;41452;42.780;23.116;2022-12-07T01:45:50;29.30;;;13.82;;
55589;SDS011;41452;42.780;23.116;2022-12-07T01:48:17;28.83;;;13.13;;
55589;SDS011;41452;42.780;23.116;2022-12-07T01:50:46;31.38;;;12.77;;
55589;SDS011;41452;42.780;23.116;2022-12-07T01:53:16;26.25;;;11.48;;
55589;SDS011;41452;42.780;23.116;2022-12-07T01:55:43;26.45;;;12.20;;
55589;SDS011;41452;42.780;23.116;2022-12-07T01:58:13;23.85;;;11.38;;
55589;SDS011;41452;42.780;23.116;2022-12-07T02:00:39;30.00;;;12.65;;
55589;SDS011;41452;42.780;23.116;2022-12-07T02:05:44;26.55;;;11.63;;
55589;SDS011;41452;42.780;23.116;2022-12-07T02:08:11;28.92;;;12.25;;
55589;SDS011;41452;42.780;23.116;2022-12-07T02:10:37;33.60;;;14.25;;
55589;SDS011;41452;42.780;23.116;2022-12-07T02:15:38;27.27;;;11.45;;
55589;SDS011;41452;42.780;23.116;2022-12-07T02:18:16;25.42;;;11.70;;
55589;SDS011;41452;42.780;23.116;2022-12-07T02:35:05;26.48;;;10.90;;
55589;SDS011;41452;42.780;23.116;2022-12-07T02:40:36;25.42;;;9.52;;
55589;SDS011;41452;42.780;23.116;2022-12-07T02:43:16;22.90;;;10.75;;
55589;SDS011;41452;42.780;23.116;2022-12-07T02:45:46;27.42;;;11.88;;
55589;SDS011;41452;42.780;23.116;2022-12-07T02:48:16;22.80;;;10.68;;
55589;SDS011;41452;42.780;23.116;2022-12-07T02:50:53;24.98;;;11.00;;
55589;SDS011;41452;42.780;23.116;2022-12-07T02:56:16;29.77;;;11.87;;
55589;SDS011;41452;42.780;23.116;2022-12-07T02:59:16;26.73;;;10.15;;
55589;SDS011;41452;42.780;23.116;2022-12-07T03:15:29;23.55;;;8.75;;
55589;SDS011;41452;42.780;23.116;2022-12-07T03:17:58;18.42;;;9.15;;
55589;SDS011;41452;42.780;23.116;2022-12-07T03:20:27;25.23;;;10.70;;
55589;SDS011;41452;42.780;23.116;2022-12-07T03:22:54;22.20;;;8.90;;
55589;SDS011;41452;42.780;23.116;2022-12-07T03:25:22;19.90;;;9.27;;
55589;SDS011;41452;42.780;23.116;2022-12-07T03:27:58;26.33;;;9.15;;
55589;SDS011;41452;42.780;23.116;2022-12-07T03:30:28;21.77;;;9.25;;
55589;SDS011;41452;42.780;23.116;2022-12-07T03:33:00;25.23;;;10.07;;
55589;SDS011;41452;42.780;23.116;2022-12-07T03:35:37;20.55;;;9.65;;
55589;SDS011;41452;42.780;23.116;2022-12-07T03:38:23;23.63;;;9.55;;
55589;SDS011;41452;42.780;23.116;2022-12-07T03:40:55;22.42;;;9.63;;
55589;SDS011;41452;42.780;23.116;2022-12-07T03:43:25;21.65;;;9.25;;
55589;SDS011;41452;42.780;23.116;2022-12-07T03:48:41;20.67;;;10.10;;
55589;SDS011;41452;42.780;23.116;2022-12-07T03:51:27;21.42;;;9.50;;
55589;SDS011;41452;42.780;23.116;2022-12-07T03:54:07;24.38;;;9.77;;
55589;SDS011;41452;42.780;23.116;2022-12-07T03:56:44;24.83;;;10.93;;
55589;SDS011;41452;42.780;23.116;2022-12-07T03:59:11;27.60;;;10.38;;
55589;SDS011;41452;42.780;23.116;2022-12-07T04:01:40;26.10;;;10.52;;
55589;SDS011;41452;42.780;23.116;2022-12-07T04:04:07;26.27;;;9.70;;
55589;SDS011;41452;42.780;23.116;2022-12-07T04:06:32;23.83;;;10.30;;
55589;SDS011;41452;42.780;23.116;2022-12-07T04:08:58;29.60;;;10.65;;
55589;SDS011;41452;42.780;23.116;2022-12-07T04:11:23;24.48;;;10.32;;
55589;SDS011;41452;42.780;23.116;2022-12-07T04:13:48;22.27;;;9.93;;
55589;SDS011;41452;42.780;23.116;2022-12-07T04:16:32;24.13;;;11.10;;
55589;SDS011;41452;42.780;23.116;2022-12-07T04:18:58;27.05;;;11.05;;
55589;SDS011;41452;42.780;23.116;2022-12-07T04:21:23;24.30;;;12.07;;
55589;SDS011;41452;42.780;23.116;2022-12-07T04:23:49;26.63;;;10.85;;
55589;SDS011;41452;42.780;23.116;2022-12-07T04:26:14;20.35;;;8.48;;
55589;SDS011;41452;42.780;23.116;2022-12-07T04:28:39;26.20;;;10.77;;
55589;SDS011;41452;42.780;23.116;2022-12-07T04:31:05;28.83;;;11.18;;
55589;SDS011;41452;42.780;23.116;2022-12-07T04:33:30;25.40;;;10.52;;
55589;SDS011;41452;42.780;23.116;2022-12-07T04:35:55;22.58;;;8.57;;
55589;SDS011;41452;42.780;23.116;2022-12-07T04:38:21;24.92;;;11.38;;
55589;SDS011;41452;42.780;23.116;2022-12-07T04:40:46;28.52;;;11.55;;
55589;SDS011;41452;42.780;23.116;2022-12-07T04:43:11;24.88;;;11.23;;
55589;SDS011;41452;42.780;23.116;2022-12-07T04:45:37;23.10;;;9.95;;
55589;SDS011;41452;42.780;23.116;2022-12-07T04:48:02;22.83;;;10.25;;
55589;SDS011;41452;42.780;23.116;2022-12-07T04:50:28;21.58;;;10.25;;
55589;SDS011;41452;42.780;23.116;2022-12-07T04:52:53;22.00;;;11.10;;
55589;SDS011;41452;42.780;23.116;2022-12-07T04:55:19;36.20;;;12.95;;
55589;SDS011;41452;42.780;23.116;2022-12-07T04:57:44;27.70;;;11.38;;
55589;SDS011;41452;42.780;23.116;2022-12-07T05:00:09;20.65;;;9.25;;
55589;SDS011;41452;42.780;23.116;2022-12-07T05:02:35;22.75;;;10.02;;
55589;SDS011;41452;42.780;23.116;2022-12-07T05:05:01;23.85;;;10.23;;
55589;SDS011;41452;42.780;23.116;2022-12-07T05:07:26;25.27;;;10.65;;
55589;SDS011;41452;42.780;23.116;2022-12-07T05:09:51;30.55;;;13.77;;
55589;SDS011;41452;42.780;23.116;2022-12-07T05:12:17;31.73;;;13.55;;
55589;SDS011;41452;42.780;23.116;2022-12-07T05:14:42;31.60;;;13.68;;
55589;SDS011;41452;42.780;23.116;2022-12-07T05:17:07;31.83;;;14.45;;
55589;SDS011;41452;42.780;23.116;2022-12-07T05:19:33;36.03;;;14.35;;
55589;SDS011;41452;42.780;23.116;2022-12-07T05:21:58;25.25;;;11.77;;
55589;SDS011;41452;42.780;23.116;2022-12-07T05:24:23;24.42;;;10.60;;
55589;SDS011;41452;42.780;23.116;2022-12-07T05:26:49;22.48;;;10.05;;
55589;SDS011;41452;42.780;23.116;2022-12-07T05:29:15;30.27;;;11.38;;
55589;SDS011;41452;42.780;23.116;2022-12-07T05:31:42;28.40;;;11.75;;
55589;SDS011;41452;42.780;23.116;2022-12-07T05:34:08;22.13;;;10.75;;
55589;SDS011;41452;42.780;23.116;2022-12-07T05:36:34;27.27;;;12.48;;
55589;SDS011;41452;42.780;23.116;2022-12-07T05:38:59;23.73;;;9.93;;
55589;SDS011;41452;42.780;23.116;2022-12-07T05:41:25;29.38;;;12.15;;
55589;SDS011;41452;42.780;23.116;2022-12-07T05:44:09;29.85;;;12.35;;
55589;SDS011;41452;42.780;23.116;2022-12-07T05:46:34;23.65;;;11.20;;
55589;SDS011;41452;42.780;23.116;2022-12-07T05:49:00;23.15;;;9.75;;
55589;SDS011;41452;42.780;23.116;2022-12-07T05:51:26;29.30;;;10.82;;
55589;SDS011;41452;42.780;23.116;2022-12-07T05:53:51;30.80;;;13.43;;
55589;SDS011;41452;42.780;23.116;2022-12-07T05:56:17;26.55;;;10.85;;
55589;SDS011;41452;42.780;23.116;2022-12-07T05:58:42;24.13;;;11.63;;
55589;SDS011;41452;42.780;23.116;2022-12-07T06:01:26;22.25;;;11.23;;
55589;SDS011;41452;42.780;23.116;2022-12-07T06:03:51;19.58;;;9.02;;
55589;SDS011;41452;42.780;23.116;2022-12-07T06:06:17;21.10;;;9.02;;
55589;SDS011;41452;42.780;23.116;2022-12-07T06:08:42;20.38;;;9.05;;
55589;SDS011;41452;42.780;23.116;2022-12-07T06:11:08;22.65;;;8.57;;
55589;SDS011;41452;42.780;23.116;2022-12-07T06:13:52;22.38;;;8.52;;
55589;SDS011;41452;42.780;23.116;2022-12-07T06:16:17;21.73;;;9.48;;
55589;SDS011;41452;42.780;23.116;2022-12-07T06:18:43;21.88;;;9.27;;
55589;SDS011;41452;42.780;23.116;2022-12-07T06:21:08;25.85;;;10.18;;
55589;SDS011;41452;42.780;23.116;2022-12-07T06:23:34;22.40;;;8.85;;
55589;SDS011;41452;42.780;23.116;2022-12-07T06:25:59;26.08;;;10.45;;
55589;SDS011;41452;42.780;23.116;2022-12-07T06:28:24;26.60;;;10.32;;
55589;SDS011;41452;42.780;23.116;2022-12-07T06:30:59;22.42;;;9.93;;
55589;SDS011;41452;42.780;23.116;2022-12-07T06:33:26;25.27;;;10.38;;
55589;SDS011;41452;42.780;23.116;2022-12-07T06:35:52;20.38;;;8.57;;
55589;SDS011;41452;42.780;23.116;2022-12-07T06:38:17;24.75;;;10.32;;
55589;SDS011;41452;42.780;23.116;2022-12-07T06:40:43;22.80;;;9.48;;
55589;SDS011;41452;42.780;23.116;2022-12-07T06:43:08;24.33;;;9.68;;
55589;SDS011;41452;42.780;23.116;2022-12-07T06:45:33;23.67;;;10.30;;
55589;SDS011;41452;42.780;23.116;2022-12-07T06:47:59;25.60;;;11.27;;
55589;SDS011;41452;42.780;23.116;2022-12-07T06:50:24;27.10;;;11.60;;
55589;SDS011;41452;42.780;23.116;2022-12-07T06:52:50;25.95;;;11.25;;
55589;SDS011;41452;42.780;23.116;2022-12-07T06:55:16;26.95;;;11.10;;
55589;SDS011;41452;42.780;23.116;2022-12-07T06:57:41;28.33;;;10.93;;
55589;SDS011;41452;42.780;23.116;2022-12-07T07:00:07;29.13;;;10.88;;
55589;SDS011;41452;42.780;23.116;2022-12-07T07:02:32;24.90;;;11.48;;
55589;SDS011;41452;42.780;23.116;2022-12-07T07:04:58;37.53;;;12.63;;
55589;SDS011;41452;42.780;23.116;2022-12-07T07:07:23;29.38;;;12.90;;
55589;SDS011;41452;42.780;23.116;2022-12-07T07:09:48;33.47;;;13.68;;
55589;SDS011;41452;42.780;23.116;2022-12-07T07:12:14;29.95;;;13.13;;
55589;SDS011;41452;42.780;23.116;2022-12-07T07:14:39;27.45;;;11.68;;
55589;SDS011;41452;42.780;23.116;2022-12-07T07:17:04;31.48;;;12.82;;
55589;SDS011;41452;42.780;23.116;2022-12-07T07:19:30;28.90;;;10.85;;
55589;SDS011;41452;42.780;23.116;2022-12-07T07:21:55;31.27;;;12.73;;
55589;SDS011;41452;42.780;23.116;2022-12-07T07:24:21;28.98;;;13.35;;
55589;SDS011;41452;42.780;23.116;2022-12-07T07:26:46;33.35;;;13.32;;
55589;SDS011;41452;42.780;23.116;2022-12-07T07:29:11;28.75;;;13.20;;
55589;SDS011;41452;42.780;23.116;2022-12-07T07:31:37;25.55;;;10.95;;
55589;SDS011;41452;42.780;23.116;2022-12-07T07:34:02;33.90;;;12.45;;
55589;SDS011;41452;42.780;23.116;2022-12-07T07:36:28;29.48;;;11.55;;
55589;SDS011;41452;42.780;23.116;2022-12-07T07:38:53;38.72;;;12.40;;
55589;SDS011;41452;42.780;23.116;2022-12-07T07:41:18;32.20;;;14.05;;
55589;SDS011;41452;42.780;23.116;2022-12-07T07:43:44;40.05;;;13.80;;
55589;SDS011;41452;42.780;23.116;2022-12-07T07:46:09;32.30;;;11.07;;
55589;SDS011;41452;42.780;23.116;2022-12-07T07:48:35;30.13;;;12.55;;
55589;SDS011;41452;42.780;23.116;2022-12-07T07:51:00;31.08;;;11.18;;
55589;SDS011;41452;42.780;23.116;2022-12-07T07:53:30;30.98;;;13.27;;
55589;SDS011;41452;42.780;23.116;2022-12-07T07:55:55;34.00;;;13.23;;
55589;SDS011;41452;42.780;23.116;2022-12-07T07:58:21;32.03;;;12.00;;
55589;SDS011;41452;42.780;23.116;2022-12-07T08:00:46;28.13;;;11.43;;
55589;SDS011;41452;42.780;23.116;2022-12-07T08:03:12;31.92;;;11.48;;
55589;SDS011;41452;42.780;23.116;2022-12-07T08:05:37;27.75;;;11.68;;
55589;SDS011;41452;42.780;23.116;2022-12-07T08:08:03;34.00;;;12.38;;
55589;SDS011;41452;42.780;23.116;2022-12-07T08:10:29;29.58;;;12.23;;
55589;SDS011;41452;42.780;23.116;2022-12-07T08:12:54;30.30;;;11.60;;
55589;SDS011;41452;42.780;23.116;2022-12-07T08:15:38;34.30;;;12.32;;
55589;SDS011;41452;42.780;23.116;2022-12-07T08:18:05;34.25;;;14.15;;
55589;SDS011;41452;42.780;23.116;2022-12-07T08:20:31;30.92;;;11.68;;
55589;SDS011;41452;42.780;23.116;2022-12-07T08:22:57;36.58;;;14.40;;
55589;SDS011;41452;42.780;23.116;2022-12-07T08:25:23;28.83;;;12.68;;
55589;SDS011;41452;42.780;23.116;2022-12-07T08:27:48;35.13;;;12.80;;
55589;SDS011;41452;42.780;23.116;2022-12-07T08:30:16;34.92;;;12.73;;
55589;SDS011;41452;42.780;23.116;2022-12-07T08:32:41;33.33;;;12.52;;
55589;SDS011;41452;42.780;23.116;2022-12-07T08:35:07;38.78;;;13.48;;
55589;SDS011;41452;42.780;23.116;2022-12-07T08:37:33;32.78;;;12.75;;
55589;SDS011;41452;42.780;23.116;2022-12-07T08:39:58;31.05;;;13.60;;
55589;SDS011;41452;42.780;23.116;2022-12-07T08:42:24;31.17;;;12.55;;
55589;SDS011;41452;42.780;23.116;2022-12-07T08:44:54;27.67;;;12.02;;
55589;SDS011;41452;42.780;23.116;2022-12-07T08:47:20;28.40;;;11.85;;
55589;SDS011;41452;42.780;23.116;2022-12-07T08:49:46;29.42;;;13.82;;
55589;SDS011;41452;42.780;23.116;2022-12-07T08:52:14;34.28;;;13.90;;
55589;SDS011;41452;42.780;23.116;2022-12-07T08:54:40;28.52;;;11.65;;
55589;SDS011;41452;42.780;23.116;2022-12-07T08:57:07;29.83;;;12.60;;
55589;SDS011;41452;42.780;23.116;2022-12-07T08:59:34;26.88;;;11.23;;
55589;SDS011;41452;42.780;23.116;2022-12-07T09:02:01;29.00;;;13.13;;
55589;SDS011;41452;42.780;23.116;2022-12-07T09:04:27;29.27;;;12.40;;
55589;SDS011;41452;42.780;23.116;2022-12-07T09:06:53;32.78;;;12.65;;
55589;SDS011;41452;42.780;23.116;2022-12-07T09:09:19;27.45;;;11.63;;
55589;SDS011;41452;42.780;23.116;2022-12-07T09:11:45;38.92;;;14.05;;
55589;SDS011;41452;42.780;23.116;2022-12-07T09:14:11;28.98;;;13.82;;
55589;SDS011;41452;42.780;23.116;2022-12-07T09:16:37;38.17;;;14.93;;
55589;SDS011;41452;42.780;23.116;2022-12-07T09:19:03;34.38;;;14.57;;
55589;SDS011;41452;42.780;23.116;2022-12-07T09:21:28;45.17;;;16.73;;
55589;SDS011;41452;42.780;23.116;2022-12-07T09:23:54;42.38;;;16.13;;
55589;SDS011;41452;42.780;23.116;2022-12-07T09:26:19;38.17;;;15.18;;
55589;SDS011;41452;42.780;23.116;2022-12-07T09:28:44;31.00;;;12.75;;
55589;SDS011;41452;42.780;23.116;2022-12-07T09:31:10;37.17;;;14.77;;
55589;SDS011;41452;42.780;23.116;2022-12-07T09:33:35;37.53;;;15.90;;
55589;SDS011;41452;42.780;23.116;2022-12-07T09:36:01;35.38;;;14.82;;
55589;SDS011;41452;42.780;23.116;2022-12-07T09:38:27;52.63;;;21.17;;
55589;SDS011;41452;42.780;23.116;2022-12-07T09:40:55;41.33;;;18.45;;
55589;SDS011;41452;42.780;23.116;2022-12-07T09:43:24;33.83;;;16.13;;
55589;SDS011;41452;42.780;23.116;2022-12-07T09:45:51;33.88;;;15.48;;
55589;SDS011;41452;42.780;23.116;2022-12-07T09:51:02;39.58;;;16.80;;
55589;SDS011;41452;42.780;23.116;2022-12-07T09:53:37;42.55;;;19.23;;
55589;SDS011;41452;42.780;23.116;2022-12-07T09:56:03;49.08;;;19.60;;
55589;SDS011;41452;42.780;23.116;2022-12-07T09:58:30;46.05;;;17.58;;
55589;SDS011;41452;42.780;23.116;2022-12-07T10:00:59;49.72;;;21.63;;
55589;SDS011;41452;42.780;23.116;2022-12-07T10:03:27;40.15;;;17.23;;
55589;SDS011;41452;42.780;23.116;2022-12-07T10:05:54;44.95;;;17.73;;
55589;SDS011;41452;42.780;23.116;2022-12-07T10:08:20;43.10;;;18.02;;
55589;SDS011;41452;42.780;23.116;2022-12-07T10:10:48;38.08;;;16.60;;
55589;SDS011;41452;42.780;23.116;2022-12-07T10:13:20;37.95;;;15.30;;
55589;SDS011;41452;42.780;23.116;2022-12-07T10:15:52;47.08;;;17.23;;
55589;SDS011;41452;42.780;23.116;2022-12-07T10:24:03;37.15;;;14.68;;
55589;SDS011;41452;42.780;23.116;2022-12-07T10:31:45;46.20;;;21.20;;
55589;SDS011;41452;42.780;23.116;2022-12-07T10:34:21;41.17;;;17.92;;
55589;SDS011;41452;42.780;23.116;2022-12-07T10:36:51;39.30;;;17.15;;
55589;SDS011;41452;42.780;23.116;2022-12-07T10:39:23;44.30;;;19.17;;
55589;SDS011;41452;42.780;23.116;2022-12-07T10:42:01;40.70;;;19.40;;
55589;SDS011;41452;42.780;23.116;2022-12-07T10:44:28;39.28;;;17.67;;
55589;SDS011;41452;42.780;23.116;2022-12-07T10:52:19;36.35;;;16.25;;
55589;SDS011;41452;42.780;23.116;2022-12-07T11:00:35;49.10;;;21.65;;
55589;SDS011;41452;42.780;23.116;2022-12-07T11:03:25;40.72;;;18.85;;
55589;SDS011;41452;42.780;23.116;2022-12-07T11:12:02;46.63;;;18.55;;
55589;SDS011;41452;42.780;23.116;2022-12-07T11:14:37;43.33;;;19.23;;
55589;SDS011;41452;42.780;23.116;2022-12-07T11:17:21;40.60;;;19.02;;
55589;SDS011;41452;42.780;23.116;2022-12-07T11:20:20;42.45;;;18.63;;
55589;SDS011;41452;42.780;23.116;2022-12-07T11:23:12;51.97;;;20.85;;
55589;SDS011;41452;42.780;23.116;2022-12-07T11:31:29;43.30;;;19.48;;
55589;SDS011;41452;42.780;23.116;2022-12-07T11:34:13;39.97;;;19.15;;
55589;SDS011;41452;42.780;23.116;2022-12-07T11:36:51;40.92;;;17.83;;
55589;SDS011;41452;42.780;23.116;2022-12-07T11:41:46;42.83;;;20.65;;
55589;SDS011;41452;42.780;23.116;2022-12-07T11:47:11;50.58;;;19.38;;
55589;SDS011;41452;42.780;23.116;2022-12-07T11:49:44;41.05;;;19.65;;
55589;SDS011;41452;42.780;23.116;2022-12-07T11:55:32;42.28;;;20.10;;
55589;SDS011;41452;42.780;23.116;2022-12-07T12:00:40;47.05;;;21.13;;
55589;SDS011;41452;42.780;23.116;2022-12-07T12:03:11;55.15;;;22.40;;
55589;SDS011;41452;42.780;23.116;2022-12-07T12:05:41;39.97;;;19.52;;
55589;SDS011;41452;42.780;23.116;2022-12-07T12:22:23;49.55;;;21.83;;
55589;SDS011;41452;42.780;23.116;2022-12-07T12:24:58;50.88;;;21.48;;
55589;SDS011;41452;42.780;23.116;2022-12-07T12:27:27;53.25;;;23.30;;
55589;SDS011;41452;42.780;23.116;2022-12-07T12:30:00;48.65;;;20.50;;
55589;SDS011;41452;42.780;23.116;2022-12-07T12:37:45;40.50;;;19.88;;
55589;SDS011;41452;42.780;23.116;2022-12-07T12:42:44;36.97;;;18.27;;
55589;SDS011;41452;42.780;23.116;2022-12-07T12:45:18;34.50;;;18.48;;
55589;SDS011;41452;42.780;23.116;2022-12-07T12:48:03;34.08;;;16.02;;
55589;SDS011;41452;42.780;23.116;2022-12-07T12:50:36;42.83;;;18.67;;
55589;SDS011;41452;42.780;23.116;2022-12-07T12:53:24;42.30;;;16.75;;
55589;SDS011;41452;42.780;23.116;2022-12-07T12:58:31;41.45;;;17.17;;
55589;SDS011;41452;42.780;23.116;2022-12-07T13:03:55;34.38;;;15.93;;
55589;SDS011;41452;42.780;23.116;2022-12-07T13:08:54;39.90;;;15.32;;
55589;SDS011;41452;42.780;23.116;2022-12-07T13:11:36;33.67;;;15.25;;
55589;SDS011;41452;42.780;23.116;2022-12-07T13:22:31;37.42;;;16.40;;
55589;SDS011;41452;42.780;23.116;2022-12-07T13:27:43;46.28;;;17.38;;
55589;SDS011;41452;42.780;23.116;2022-12-07T13:30:16;35.40;;;16.40;;
55589;SDS011;41452;42.780;23.116;2022-12-07T13:32:50;36.83;;;16.27;;
55589;SDS011;41452;42.780;23.116;2022-12-07T13:35:29;43.92;;;17.52;;
55589;SDS011;41452;42.780;23.116;2022-12-07T13:37:56;36.47;;;18.63;;
55589;SDS011;41452;42.780;23.116;2022-12-07T13:40:22;39.88;;;19.17;;
55589;SDS011;41452;42.780;23.116;2022-12-07T13:42:56;36.17;;;16.42;;
55589;SDS011;41452;42.780;23.116;2022-12-07T13:45:23;36.90;;;15.98;;
55589;SDS011;41452;42.780;23.116;2022-12-07T13:48:12;45.70;;;20.27;;
55589;SDS011;41452;42.780;23.116;2022-12-07T13:51:00;41.90;;;19.55;;
55589;SDS011;41452;42.780;23.116;2022-12-07T13:53:27;35.83;;;16.30;;
55589;SDS011;41452;42.780;23.116;2022-12-07T13:55:58;31.40;;;14.35;;
55589;SDS011;41452;42.780;23.116;2022-12-07T13:58:25;30.83;;;13.68;;
55589;SDS011;41452;42.780;23.116;2022-12-07T14:00:52;30.63;;;13.25;;
55589;SDS011;41452;42.780;23.116;2022-12-07T14:05:43;29.80;;;14.48;;
55589;SDS011;41452;42.780;23.116;2022-12-07T14:13:31;35.72;;;15.25;;
55589;SDS011;41452;42.780;23.116;2022-12-07T14:15:58;33.95;;;15.60;;
55589;SDS011;41452;42.780;23.116;2022-12-07T14:18:27;38.13;;;15.40;;
55589;SDS011;41452;42.780;23.116;2022-12-07T14:21:15;33.05;;;15.98;;
55589;SDS011;41452;42.780;23.116;2022-12-07T14:23:43;37.30;;;14.48;;
55589;SDS011;41452;42.780;23.116;2022-12-07T14:28:36;42.25;;;16.58;;
55589;SDS011;41452;42.780;23.116;2022-12-07T14:31:02;44.60;;;17.27;;
55589;SDS011;41452;42.780;23.116;2022-12-07T14:33:32;37.63;;;17.00;;
55589;SDS011;41452;42.780;23.116;2022-12-07T14:35:58;38.92;;;17.27;;
55589;SDS011;41452;42.780;23.116;2022-12-07T14:38:24;35.65;;;15.93;;
55589;SDS011;41452;42.780;23.116;2022-12-07T14:40:53;35.72;;;15.82;;
55589;SDS011;41452;42.780;23.116;2022-12-07T14:43:39;33.92;;;14.90;;
55589;SDS011;41452;42.780;23.116;2022-12-07T14:46:05;28.55;;;14.50;;
55589;SDS011;41452;42.780;23.116;2022-12-07T14:48:30;33.80;;;13.98;;
55589;SDS011;41452;42.780;23.116;2022-12-07T14:50:55;29.60;;;14.02;;
55589;SDS011;41452;42.780;23.116;2022-12-07T14:53:22;29.25;;;13.10;;
55589;SDS011;41452;42.780;23.116;2022-12-07T14:55:53;28.58;;;12.82;;
55589;SDS011;41452;42.780;23.116;2022-12-07T14:58:19;25.75;;;13.63;;
55589;SDS011;41452;42.780;23.116;2022-12-07T15:00:45;30.83;;;13.02;;
55589;SDS011;41452;42.780;23.116;2022-12-07T15:03:12;44.17;;;19.67;;
55589;SDS011;41452;42.780;23.116;2022-12-07T15:05:38;42.25;;;19.73;;
55589;SDS011;41452;42.780;23.116;2022-12-07T15:08:04;32.55;;;15.20;;
55589;SDS011;41452;42.780;23.116;2022-12-07T15:10:31;33.20;;;12.70;;
55589;SDS011;41452;42.780;23.116;2022-12-07T15:12:58;25.08;;;10.70;;
55589;SDS011;41452;42.780;23.116;2022-12-07T15:15:50;23.45;;;10.65;;
55589;SDS011;41452;42.780;23.116;2022-12-07T15:18:17;25.40;;;10.40;;
55589;SDS011;41452;42.780;23.116;2022-12-07T15:20:43;22.15;;;10.27;;
55589;SDS011;41452;42.780;23.116;2022-12-07T15:23:09;23.35;;;12.23;;
55589;SDS011;41452;42.780;23.116;2022-12-07T15:25:35;25.88;;;11.05;;
55589;SDS011;41452;42.780;23.116;2022-12-07T15:28:00;25.02;;;13.25;;
55589;SDS011;41452;42.780;23.116;2022-12-07T15:30:26;27.88;;;12.52;;
55589;SDS011;41452;42.780;23.116;2022-12-07T15:32:52;25.88;;;11.73;;
55589;SDS011;41452;42.780;23.116;2022-12-07T15:35:17;23.70;;;11.23;;
55589;SDS011;41452;42.780;23.116;2022-12-07T15:37:43;21.98;;;9.90;;
55589;SDS011;41452;42.780;23.116;2022-12-07T15:40:08;23.95;;;9.63;;
55589;SDS011;41452;42.780;23.116;2022-12-07T15:42:35;21.90;;;9.40;;
55589;SDS011;41452;42.780;23.116;2022-12-07T15:45:01;20.70;;;9.30;;
55589;SDS011;41452;42.780;23.116;2022-12-07T15:47:39;22.52;;;9.57;;
55589;SDS011;41452;42.780;23.116;2022-12-07T15:50:07;23.88;;;9.80;;
55589;SDS011;41452;42.780;23.116;2022-12-07T15:52:34;20.90;;;9.35;;
55589;SDS011;41452;42.780;23.116;2022-12-07T15:55:00;19.42;;;9.15;;
55589;SDS011;41452;42.780;23.116;2022-12-07T15:57:27;23.63;;;8.85;;
55589;SDS011;41452;42.780;23.116;2022-12-07T15:59:53;22.65;;;9.02;;
55589;SDS011;41452;42.780;23.116;2022-12-07T16:02:18;23.63;;;10.38;;
55589;SDS011;41452;42.780;23.116;2022-12-07T16:04:44;20.85;;;9.05;;
55589;SDS011;41452;42.780;23.116;2022-12-07T16:07:10;16.30;;;8.80;;
55589;SDS011;41452;42.780;23.116;2022-12-07T16:09:36;16.35;;;8.90;;
55589;SDS011;41452;42.780;23.116;2022-12-07T16:12:02;22.50;;;9.00;;
55589;SDS011;41452;42.780;23.116;2022-12-07T16:14:28;20.80;;;7.93;;
55589;SDS011;41452;42.780;23.116;2022-12-07T16:16:53;18.70;;;8.75;;
55589;SDS011;41452;42.780;23.116;2022-12-07T16:19:19;16.67;;;8.15;;
55589;SDS011;41452;42.780;23.116;2022-12-07T16:21:45;16.27;;;8.38;;
55589;SDS011;41452;42.780;23.116;2022-12-07T16:24:10;14.60;;;7.32;;
55589;SDS011;41452;42.780;23.116;2022-12-07T16:26:37;19.83;;;9.20;;
55589;SDS011;41452;42.780;23.116;2022-12-07T16:29:02;19.27;;;8.85;;
55589;SDS011;41452;42.780;23.116;2022-12-07T16:31:28;18.77;;;8.23;;
55589;SDS011;41452;42.780;23.116;2022-12-07T16:33:55;19.83;;;7.00;;
55589;SDS011;41452;42.780;23.116;2022-12-07T16:36:22;13.88;;;6.78;;
55589;SDS011;41452;42.780;23.116;2022-12-07T16:38:49;16.75;;;7.80;;